createdAt,value
2022-08-16T09:30:56.236Z,44.92
2022-08-16T09:31:57.411Z,43.99
2022-08-16T09:32:56.780Z,43.48
2022-08-16T09:33:56.693Z,43.16
2022-08-16T09:34:58.276Z,42.75
2022-08-16T09:35:57.352Z,41.67
2022-08-16T09:36:56.514Z,42.16
2022-08-16T09:38:01.073Z,41.35
2022-08-16T09:38:59.809Z,41.25
2022-08-16T09:39:56.337Z,41.27
2022-08-16T09:40:56.321Z,41.55
2022-08-16T09:41:57.411Z,41.25
2022-08-16T09:42:59.069Z,42.90
2022-08-16T09:43:59.943Z,41.03
2022-08-16T09:45:11.952Z,40.74
2022-08-16T09:45:55.964Z,40.76
2022-08-16T09:46:57.758Z,41.06
2022-08-16T09:47:57.795Z,41.47
2022-08-16T09:48:56.532Z,41.37
2022-08-16T09:49:56.127Z,41.17
2022-08-16T10:07:38.343Z,40.37
2022-08-16T10:08:31.173Z,40.76
2022-08-16T10:09:53.874Z,40.16
2022-08-16T10:10:31.327Z,40.16
2022-08-16T10:11:30.964Z,40.06
2022-08-16T10:12:30.938Z,39.95
2022-08-16T10:13:30.859Z,40.16
2022-08-16T10:14:32.919Z,40.35
2022-08-16T10:15:30.709Z,39.56
2022-08-16T10:16:30.652Z,39.06
2022-08-16T10:17:30.650Z,39.25
2022-08-16T10:18:56.361Z,38.85
2022-08-16T10:19:32.085Z,38.54
2022-08-16T10:20:30.417Z,39.03
2022-08-16T10:21:32.044Z,38.84
2022-08-16T10:22:30.291Z,38.33
2022-08-16T10:23:30.252Z,38.64
2022-08-16T10:24:31.733Z,39.35
2022-08-16T10:27:16.247Z,39.74
2022-08-16T10:27:28.929Z,39.84
2022-08-16T10:27:56.645Z,39.74
2022-08-16T10:28:40.172Z,39.14
2022-08-16T10:30:00.924Z,38.64
2022-08-16T10:30:39.128Z,37.76
2022-08-16T10:31:44.171Z,37.56
2022-08-16T10:32:36.155Z,37.76
2022-08-16T10:33:40.489Z,37.76
2022-08-16T10:34:36.032Z,37.56
2022-08-16T10:35:37.185Z,38.35
2022-08-16T10:36:39.405Z,38.45
2022-08-16T10:37:36.654Z,37.96
2022-08-16T10:38:37.104Z,38.15
2022-08-16T10:39:41.865Z,38.45
2022-08-16T10:40:35.706Z,38.27
2022-08-16T10:41:35.628Z,38.46
2022-08-16T10:42:35.542Z,38.96
2022-08-16T10:43:35.519Z,38.96
2022-08-16T10:44:35.432Z,38.85
2022-08-16T10:45:37.061Z,38.66
2022-08-16T10:46:40.715Z,38.27
2022-08-16T10:47:38.688Z,38.37
2022-08-16T10:48:35.222Z,37.98
